sensor_id;sensor_type;location;lat;lon;timestamp;pressure;altitude;pressure_sealevel;temperature;humidity
23361;BME280;11852;50.082;18.554;2023-04-15T00:00:49;97251.5;;;9.34;83.9
23361;BME280;11852;50.082;18.554;2023-04-15T00:01:57;97254.0;;;9.33;83.91
23361;BME280;11852;50.082;18.554;2023-04-15T00:03:04;97255.5;;;9.32;83.9
23361;BME280;11852;50.082;18.554;2023-04-15T00:04:14;97253.0;;;9.39;83.65
23361;BME280;11852;50.082;18.554;2023-04-15T00:05:21;97254.5;;;9.39;83.7
23361;BME280;11852;50.082;18.554;2023-04-15T00:06:29;97255.0;;;9.34;83.74
23361;BME280;11852;50.082;18.554;2023-04-15T00:07:36;97257.99;;;9.4;83.53
23361;BME280;11852;50.082;18.554;2023-04-15T00:08:47;97259.0;;;9.36;83.57
23361;BME280;11852;50.082;18.554;2023-04-15T00:09:54;97261.0;;;9.3;83.71
23361;BME280;11852;50.082;18.554;2023-04-15T00:11:00;97255.0;;;9.38;83.37
23361;BME280;11852;50.082;18.554;2023-04-15T00:12:10;97256.0;;;9.44;83.24
23361;BME280;11852;50.082;18.554;2023-04-15T00:13:15;97258.5;;;9.49;83.06
23361;BME280;11852;50.082;18.554;2023-04-15T00:14:22;97257.49;;;9.43;83.26
23361;BME280;11852;50.082;18.554;2023-04-15T00:15:29;97260.0;;;9.49;82.93
23361;BME280;11852;50.082;18.554;2023-04-15T00:16:36;97258.5;;;9.58;82.72
23361;BME280;11852;50.082;18.554;2023-04-15T00:17:43;97260.0;;;9.51;82.9
23361;BME280;11852;50.082;18.554;2023-04-15T00:18:51;97259.5;;;9.6;82.55
23361;BME280;11852;50.082;18.554;2023-04-15T00:19:58;97259.0;;;9.51;82.74
23361;BME280;11852;50.082;18.554;2023-04-15T00:21:05;97262.0;;;9.57;82.54
23361;BME280;11852;50.082;18.554;2023-04-15T00:22:12;97264.0;;;9.52;82.74
23361;BME280;11852;50.082;18.554;2023-04-15T00:23:19;97268.5;;;9.43;82.99
23361;BME280;11852;50.082;18.554;2023-04-15T00:24:26;97268.0;;;9.5;82.79
23361;BME280;11852;50.082;18.554;2023-04-15T00:25:33;97270.0;;;9.5;82.74
23361;BME280;11852;50.082;18.554;2023-04-15T00:26:41;97272.5;;;9.38;83.07
23361;BME280;11852;50.082;18.554;2023-04-15T00:27:49;97272.5;;;9.48;82.79
23361;BME280;11852;50.082;18.554;2023-04-15T00:28:56;97270.5;;;9.53;82.63
23361;BME280;11852;50.082;18.554;2023-04-15T00:30:03;97272.5;;;9.49;82.56
23361;BME280;11852;50.082;18.554;2023-04-15T00:31:10;97275.0;;;9.49;82.35
23361;BME280;11852;50.082;18.554;2023-04-15T00:32:20;97280.01;;;9.48;82.21
23361;BME280;11852;50.082;18.554;2023-04-15T00:33:27;97282.0;;;9.48;82.14
23361;BME280;11852;50.082;18.554;2023-04-15T00:34:34;97283.5;;;9.44;81.99
23361;BME280;11852;50.082;18.554;2023-04-15T00:35:41;97287.5;;;9.47;81.88
23361;BME280;11852;50.082;18.554;2023-04-15T00:36:48;97286.5;;;9.45;82.04
23361;BME280;11852;50.082;18.554;2023-04-15T00:37:58;97289.5;;;9.51;82.0
23361;BME280;11852;50.082;18.554;2023-04-15T00:39:05;97291.0;;;9.41;82.27
23361;BME280;11852;50.082;18.554;2023-04-15T00:40:12;97290.5;;;9.47;81.96
23361;BME280;11852;50.082;18.554;2023-04-15T00:41:22;97290.0;;;9.47;82.08
23361;BME280;11852;50.082;18.554;2023-04-15T00:42:29;97289.5;;;9.47;82.05
23361;BME280;11852;50.082;18.554;2023-04-15T00:43:36;97293.0;;;9.43;82.18
23361;BME280;11852;50.082;18.554;2023-04-15T00:44:43;97292.0;;;9.39;82.32
23361;BME280;11852;50.082;18.554;2023-04-15T00:45:58;97292.5;;;9.3;82.8
23361;BME280;11852;50.082;18.554;2023-04-15T00:47:05;97296.5;;;9.05;83.15
23361;BME280;11852;50.082;18.554;2023-04-15T00:48:15;97298.5;;;9.09;83.07
23361;BME280;11852;50.082;18.554;2023-04-15T00:49:23;97294.0;;;9.22;82.76
23361;BME280;11852;50.082;18.554;2023-04-15T00:50:30;97293.5;;;9.14;83.1
23361;BME280;11852;50.082;18.554;2023-04-15T00:51:37;97294.0;;;9.24;82.72
23361;BME280;11852;50.082;18.554;2023-04-15T00:52:44;97297.5;;;9.29;82.67
23361;BME280;11852;50.082;18.554;2023-04-15T00:53:51;97296.5;;;9.13;83.12
23361;BME280;11852;50.082;18.554;2023-04-15T00:54:58;97300.0;;;9.31;82.6
23361;BME280;11852;50.082;18.554;2023-04-15T00:56:05;97298.5;;;9.33;82.69
23361;BME280;11852;50.082;18.554;2023-04-15T00:57:12;97300.5;;;9.35;82.59
23361;BME280;11852;50.082;18.554;2023-04-15T00:58:22;97301.5;;;9.4;82.59
23361;BME280;11852;50.082;18.554;2023-04-15T00:59:30;97304.0;;;9.34;82.6
23361;BME280;11852;50.082;18.554;2023-04-15T01:00:37;97303.0;;;9.39;82.47
23361;BME280;11852;50.082;18.554;2023-04-15T01:01:44;97303.5;;;9.23;82.96
23361;BME280;11852;50.082;18.554;2023-04-15T01:02:51;97304.51;;;9.32;82.6
23361;BME280;11852;50.082;18.554;2023-04-15T01:04:02;97303.5;;;9.35;82.54
23361;BME280;11852;50.082;18.554;2023-04-15T01:05:10;97304.51;;;9.36;82.51
23361;BME280;11852;50.082;18.554;2023-04-15T01:06:17;97308.5;;;9.39;82.56
23361;BME280;11852;50.082;18.554;2023-04-15T01:07:24;97309.0;;;9.4;82.46
23361;BME280;11852;50.082;18.554;2023-04-15T01:08:31;97311.5;;;9.35;82.54
23361;BME280;11852;50.082;18.554;2023-04-15T01:09:38;97313.0;;;9.36;82.36
23361;BME280;11852;50.082;18.554;2023-04-15T01:10:45;97312.0;;;9.36;82.35
23361;BME280;11852;50.082;18.554;2023-04-15T01:11:52;97311.0;;;9.32;82.41
23361;BME280;11852;50.082;18.554;2023-04-15T01:12:59;97311.0;;;9.35;82.35
23361;BME280;11852;50.082;18.554;2023-04-15T01:14:07;97315.5;;;9.38;82.43
23361;BME280;11852;50.082;18.554;2023-04-15T01:15:13;97322.0;;;9.39;82.44
23361;BME280;11852;50.082;18.554;2023-04-15T01:16:20;97324.0;;;9.36;82.51
23361;BME280;11852;50.082;18.554;2023-04-15T01:17:27;97319.0;;;9.34;82.48
23361;BME280;11852;50.082;18.554;2023-04-15T01:18:35;97315.5;;;9.31;82.47
23361;BME280;11852;50.082;18.554;2023-04-15T01:19:41;97317.01;;;9.3;82.46
23361;BME280;11852;50.082;18.554;2023-04-15T01:20:48;97313.5;;;9.31;82.46
23361;BME280;11852;50.082;18.554;2023-04-15T01:22:01;97315.0;;;9.32;82.58
23361;BME280;11852;50.082;18.554;2023-04-15T01:23:08;97309.0;;;9.27;82.6
23361;BME280;11852;50.082;18.554;2023-04-15T01:24:14;97308.5;;;9.27;82.65
23361;BME280;11852;50.082;18.554;2023-04-15T01:25:30;97308.5;;;9.26;82.57
23361;BME280;11852;50.082;18.554;2023-04-15T01:26:38;97307.49;;;9.23;82.47
23361;BME280;11852;50.082;18.554;2023-04-15T01:27:44;97306.01;;;9.19;82.54
23361;BME280;11852;50.082;18.554;2023-04-15T01:28:54;97308.5;;;9.11;82.67
23361;BME280;11852;50.082;18.554;2023-04-15T01:30:02;97306.5;;;8.95;82.96
23361;BME280;11852;50.082;18.554;2023-04-15T01:32:16;97316.0;;;8.85;83.07
23361;BME280;11852;50.082;18.554;2023-04-15T01:33:23;97318.5;;;8.93;82.85
23361;BME280;11852;50.082;18.554;2023-04-15T01:34:32;97324.5;;;8.84;82.93
23361;BME280;11852;50.082;18.554;2023-04-15T01:35:39;97325.0;;;8.9;82.76
23361;BME280;11852;50.082;18.554;2023-04-15T01:36:46;97325.0;;;8.88;82.85
23361;BME280;11852;50.082;18.554;2023-04-15T01:38:02;97325.5;;;8.91;82.8
23361;BME280;11852;50.082;18.554;2023-04-15T01:39:00;97322.5;;;8.74;83.32
23361;BME280;11852;50.082;18.554;2023-04-15T01:40:07;97323.0;;;8.9;82.89
23361;BME280;11852;50.082;18.554;2023-04-15T01:41:20;97321.5;;;8.97;82.88
23361;BME280;11852;50.082;18.554;2023-04-15T01:42:24;97320.49;;;9.01;82.92
23361;BME280;11852;50.082;18.554;2023-04-15T01:43:31;97321.0;;;9.04;82.95
23361;BME280;11852;50.082;18.554;2023-04-15T01:44:38;97323.5;;;9.01;82.87
23361;BME280;11852;50.082;18.554;2023-04-15T01:45:45;97323.0;;;8.91;82.83
23361;BME280;11852;50.082;18.554;2023-04-15T01:46:52;97320.5;;;8.84;82.88
23361;BME280;11852;50.082;18.554;2023-04-15T01:47:59;97326.0;;;8.81;82.95
23361;BME280;11852;50.082;18.554;2023-04-15T01:49:06;97325.0;;;8.72;83.04
23361;BME280;11852;50.082;18.554;2023-04-15T01:50:13;97326.0;;;8.83;82.7
23361;BME280;11852;50.082;18.554;2023-04-15T01:51:20;97329.51;;;8.8;82.79
23361;BME280;11852;50.082;18.554;2023-04-15T01:52:29;97332.49;;;8.9;82.48
23361;BME280;11852;50.082;18.554;2023-04-15T01:53:36;97335.5;;;8.95;82.63
23361;BME280;11852;50.082;18.554;2023-04-15T01:54:43;97345.49;;;8.9;82.82
23361;BME280;11852;50.082;18.554;2023-04-15T01:55:50;97344.99;;;8.84;82.93
23361;BME280;11852;50.082;18.554;2023-04-15T01:56:57;97346.5;;;8.88;82.9
23361;BME280;11852;50.082;18.554;2023-04-15T01:58:04;97347.0;;;8.9;83.04
23361;BME280;11852;50.082;18.554;2023-04-15T01:59:11;97351.5;;;8.89;83.07
23361;BME280;11852;50.082;18.554;2023-04-15T02:00:18;97355.0;;;8.89;83.06
23361;BME280;11852;50.082;18.554;2023-04-15T02:01:25;97355.0;;;8.86;83.13
23361;BME280;11852;50.082;18.554;2023-04-15T02:02:34;97357.49;;;8.84;83.21
23361;BME280;11852;50.082;18.554;2023-04-15T02:03:41;97357.99;;;8.78;83.24
23361;BME280;11852;50.082;18.554;2023-04-15T02:04:51;97356.5;;;8.65;83.65
23361;BME280;11852;50.082;18.554;2023-04-15T02:06:01;97357.0;;;8.5;84.01
23361;BME280;11852;50.082;18.554;2023-04-15T02:07:08;97356.5;;;8.31;84.53
23361;BME280;11852;50.082;18.554;2023-04-15T02:08:15;97354.0;;;8.23;84.66
23361;BME280;11852;50.082;18.554;2023-04-15T02:09:24;97354.0;;;8.2;84.63
23361;BME280;11852;50.082;18.554;2023-04-15T02:10:32;97352.5;;;8.18;84.74
23361;BME280;11852;50.082;18.554;2023-04-15T02:11:39;97351.5;;;8.19;84.7
23361;BME280;11852;50.082;18.554;2023-04-15T02:12:46;97353.5;;;8.09;84.9
23361;BME280;11852;50.082;18.554;2023-04-15T02:13:53;97350.0;;;8.1;84.76
23361;BME280;11852;50.082;18.554;2023-04-15T02:15:00;97347.5;;;8.13;84.65
23361;BME280;11852;50.082;18.554;2023-04-15T02:16:15;97349.5;;;7.94;85.24
23361;BME280;11852;50.082;18.554;2023-04-15T02:17:22;97347.5;;;8.07;84.63
23361;BME280;11852;50.082;18.554;2023-04-15T02:18:29;97351.0;;;8.25;84.17
23361;BME280;11852;50.082;18.554;2023-04-15T02:19:36;97355.51;;;8.27;84.18
23361;BME280;11852;50.082;18.554;2023-04-15T02:20:43;97356.5;;;8.4;83.82
23361;BME280;11852;50.082;18.554;2023-04-15T02:21:50;97364.0;;;8.36;83.82
23361;BME280;11852;50.082;18.554;2023-04-15T02:22:57;97369.99;;;8.43;83.65
23361;BME280;11852;50.082;18.554;2023-04-15T02:24:04;97376.0;;;8.47;83.69
23361;BME280;11852;50.082;18.554;2023-04-15T02:25:11;97379.5;;;8.49;83.65
23361;BME280;11852;50.082;18.554;2023-04-15T02:26:19;97382.0;;;8.48;83.58
23361;BME280;11852;50.082;18.554;2023-04-15T02:27:28;97382.49;;;8.35;83.91
23361;BME280;11852;50.082;18.554;2023-04-15T02:28:35;97385.5;;;8.43;83.6
23361;BME280;11852;50.082;18.554;2023-04-15T02:29:45;97386.0;;;8.5;83.54
23361;BME280;11852;50.082;18.554;2023-04-15T02:30:52;97387.5;;;8.52;83.6
23361;BME280;11852;50.082;18.554;2023-04-15T02:31:59;97388.0;;;8.49;83.53
23361;BME280;11852;50.082;18.554;2023-04-15T02:33:06;97389.5;;;8.49;83.55
23361;BME280;11852;50.082;18.554;2023-04-15T02:34:15;97387.5;;;8.45;83.6
23361;BME280;11852;50.082;18.554;2023-04-15T02:35:22;97388.5;;;8.44;83.61
23361;BME280;11852;50.082;18.554;2023-04-15T02:36:30;97386.5;;;8.41;83.62
23361;BME280;11852;50.082;18.554;2023-04-15T02:37:40;97389.5;;;8.44;83.56
23361;BME280;11852;50.082;18.554;2023-04-15T02:38:47;97386.5;;;8.35;83.73
23361;BME280;11852;50.082;18.554;2023-04-15T02:39:55;97386.0;;;8.34;83.65
23361;BME280;11852;50.082;18.554;2023-04-15T02:41:02;97384.5;;;8.29;83.74
23361;BME280;11852;50.082;18.554;2023-04-15T02:42:08;97384.5;;;8.11;84.23
23361;BME280;11852;50.082;18.554;2023-04-15T02:43:16;97385.0;;;8.02;84.54
23361;BME280;11852;50.082;18.554;2023-04-15T02:44:22;97385.0;;;7.91;84.89
23361;BME280;11852;50.082;18.554;2023-04-15T02:45:29;97384.0;;;7.99;84.54
23361;BME280;11852;50.082;18.554;2023-04-15T02:46:36;97386.5;;;8.02;84.44
23361;BME280;11852;50.082;18.554;2023-04-15T02:47:45;97384.0;;;7.82;85.1
23361;BME280;11852;50.082;18.554;2023-04-15T02:48:52;97386.5;;;7.78;85.19
23361;BME280;11852;50.082;18.554;2023-04-15T02:50:02;97388.5;;;7.84;84.86
23361;BME280;11852;50.082;18.554;2023-04-15T02:51:16;97388.0;;;7.81;85.07
23361;BME280;11852;50.082;18.554;2023-04-15T02:52:22;97389.5;;;7.89;84.59
23361;BME280;11852;50.082;18.554;2023-04-15T02:53:29;97389.0;;;7.98;84.4
23361;BME280;11852;50.082;18.554;2023-04-15T02:54:39;97388.0;;;7.97;84.32
23361;BME280;11852;50.082;18.554;2023-04-15T02:55:46;97391.5;;;7.97;84.16
23361;BME280;11852;50.082;18.554;2023-04-15T02:56:56;97391.5;;;7.93;84.17
23361;BME280;11852;50.082;18.554;2023-04-15T02:58:03;97391.0;;;8.01;84.04
23361;BME280;11852;50.082;18.554;2023-04-15T02:59:10;97394.49;;;7.94;84.12
23361;BME280;11852;50.082;18.554;2023-04-15T03:00:17;97396.0;;;8.01;83.9
23361;BME280;11852;50.082;18.554;2023-04-15T03:01:24;97398.5;;;8.01;83.9
23361;BME280;11852;50.082;18.554;2023-04-15T03:02:37;97398.0;;;8.01;83.96
23361;BME280;11852;50.082;18.554;2023-04-15T03:03:43;97398.5;;;8.02;83.93
23361;BME280;11852;50.082;18.554;2023-04-15T03:04:50;97400.0;;;8.0;83.94
23361;BME280;11852;50.082;18.554;2023-04-15T03:05:57;97400.5;;;7.96;83.95
23361;BME280;11852;50.082;18.554;2023-04-15T03:07:04;97401.0;;;7.93;83.93
23361;BME280;11852;50.082;18.554;2023-04-15T03:08:11;97399.0;;;7.97;83.94
23361;BME280;11852;50.082;18.554;2023-04-15T03:09:18;97402.0;;;7.98;83.97
23361;BME280;11852;50.082;18.554;2023-04-15T03:10:25;97403.0;;;7.97;83.93
23361;BME280;11852;50.082;18.554;2023-04-15T03:11:32;97402.5;;;7.85;84.07
23361;BME280;11852;50.082;18.554;2023-04-15T03:12:40;97401.0;;;7.9;83.9
23361;BME280;11852;50.082;18.554;2023-04-15T03:13:47;97401.5;;;7.87;83.93
23361;BME280;11852;50.082;18.554;2023-04-15T03:14:54;97400.0;;;7.81;83.93
23361;BME280;11852;50.082;18.554;2023-04-15T03:16:01;97402.0;;;7.68;84.13
23361;BME280;11852;50.082;18.554;2023-04-15T03:17:11;97402.0;;;7.74;84.01
23361;BME280;11852;50.082;18.554;2023-04-15T03:18:18;97402.0;;;7.8;83.99
23361;BME280;11852;50.082;18.554;2023-04-15T03:19:25;97403.0;;;7.81;83.85
23361;BME280;11852;50.082;18.554;2023-04-15T03:20:32;97403.5;;;7.88;83.83
23361;BME280;11852;50.082;18.554;2023-04-15T03:21:40;97402.0;;;7.92;83.84
23361;BME280;11852;50.082;18.554;2023-04-15T03:22:46;97404.51;;;7.95;83.78
23361;BME280;11852;50.082;18.554;2023-04-15T03:23:56;97403.5;;;7.95;83.82
23361;BME280;11852;50.082;18.554;2023-04-15T03:25:04;97401.5;;;7.95;83.63
23361;BME280;11852;50.082;18.554;2023-04-15T03:26:27;97401.0;;;7.95;83.62
23361;BME280;11852;50.082;18.554;2023-04-15T03:27:33;97401.0;;;7.93;83.56
23361;BME280;11852;50.082;18.554;2023-04-15T03:28:41;97402.5;;;7.92;83.51
23361;BME280;11852;50.082;18.554;2023-04-15T03:29:48;97402.5;;;7.9;83.58
23361;BME280;11852;50.082;18.554;2023-04-15T03:30:55;97405.01;;;7.92;83.58
23361;BME280;11852;50.082;18.554;2023-04-15T03:32:06;97405.01;;;7.9;83.64
23361;BME280;11852;50.082;18.554;2023-04-15T03:33:13;97409.5;;;7.88;83.58
23361;BME280;11852;50.082;18.554;2023-04-15T03:34:20;97408.5;;;7.88;83.6
23361;BME280;11852;50.082;18.554;2023-04-15T03:35:27;97411.0;;;7.86;83.67
23361;BME280;11852;50.082;18.554;2023-04-15T03:36:34;97413.5;;;7.85;83.69
23361;BME280;11852;50.082;18.554;2023-04-15T03:37:41;97415.5;;;7.81;83.72
23361;BME280;11852;50.082;18.554;2023-04-15T03:38:48;97418.01;;;7.78;83.75
23361;BME280;11852;50.082;18.554;2023-04-15T03:39:55;97419.5;;;7.76;83.79
23361;BME280;11852;50.082;18.554;2023-04-15T03:41:02;97421.0;;;7.77;83.78
23361;BME280;11852;50.082;18.554;2023-04-15T03:42:09;97419.0;;;7.77;83.82
23361;BME280;11852;50.082;18.554;2023-04-15T03:43:16;97423.5;;;7.76;83.82
23361;BME280;11852;50.082;18.554;2023-04-15T03:44:23;97424.5;;;7.74;83.83
23361;BME280;11852;50.082;18.554;2023-04-15T03:45:30;97428.0;;;7.7;83.9
23361;BME280;11852;50.082;18.554;2023-04-15T03:46:38;97428.5;;;7.7;83.85
23361;BME280;11852;50.082;18.554;2023-04-15T03:47:48;97431.0;;;7.68;83.92
23361;BME280;11852;50.082;18.554;2023-04-15T03:48:56;97430.51;;;7.63;83.76
23361;BME280;11852;50.082;18.554;2023-04-15T03:50:07;97429.51;;;7.61;83.65
23361;BME280;11852;50.082;18.554;2023-04-15T03:51:18;97428.5;;;7.57;83.74
23361;BME280;11852;50.082;18.554;2023-04-15T03:52:25;97426.0;;;7.53;83.78
23361;BME280;11852;50.082;18.554;2023-04-15T03:53:35;97425.5;;;7.53;83.74
23361;BME280;11852;50.082;18.554;2023-04-15T03:54:42;97424.5;;;7.53;83.88
23361;BME280;11852;50.082;18.554;2023-04-15T03:55:49;97422.0;;;7.5;83.94
23361;BME280;11852;50.082;18.554;2023-04-15T03:56:57;97422.5;;;7.5;83.88
23361;BME280;11852;50.082;18.554;2023-04-15T03:58:04;97427.5;;;7.45;84.08
23361;BME280;11852;50.082;18.554;2023-04-15T03:59:11;97423.5;;;7.45;84.04
23361;BME280;11852;50.082;18.554;2023-04-15T04:00:18;97425.5;;;7.47;83.96
23361;BME280;11852;50.082;18.554;2023-04-15T04:01:28;97424.5;;;7.44;84.07
23361;BME280;11852;50.082;18.554;2023-04-15T04:02:35;97422.5;;;7.44;84.07
23361;BME280;11852;50.082;18.554;2023-04-15T04:03:42;97424.0;;;7.44;83.99
23361;BME280;11852;50.082;18.554;2023-04-15T04:04:49;97424.5;;;7.42;83.96
23361;BME280;11852;50.082;18.554;2023-04-15T04:05:58;97427.5;;;7.43;84.19
23361;BME280;11852;50.082;18.554;2023-04-15T04:07:06;97431.5;;;7.43;83.99
23361;BME280;11852;50.082;18.554;2023-04-15T04:08:13;97429.0;;;7.43;84.01
23361;BME280;11852;50.082;18.554;2023-04-15T04:09:20;97430.0;;;7.41;84.07
23361;BME280;11852;50.082;18.554;2023-04-15T04:10:27;97431.5;;;7.39;83.97
23361;BME280;11852;50.082;18.554;2023-04-15T04:11:34;97432.0;;;7.39;83.92
23361;BME280;11852;50.082;18.554;2023-04-15T04:12:41;97432.0;;;7.38;83.93
23361;BME280;11852;50.082;18.554;2023-04-15T04:13:49;97429.0;;;7.38;83.94
23361;BME280;11852;50.082;18.554;2023-04-15T04:14:56;97430.51;;;7.36;83.97
23361;BME280;11852;50.082;18.554;2023-04-15T04:16:04;97431.5;;;7.34;83.96
23361;BME280;11852;50.082;18.554;2023-04-15T04:17:11;97431.99;;;7.34;84.13
23361;BME280;11852;50.082;18.554;2023-04-15T04:18:18;97432.99;;;7.34;84.17
23361;BME280;11852;50.082;18.554;2023-04-15T04:19:25;97435.0;;;7.27;84.24
23361;BME280;11852;50.082;18.554;2023-04-15T04:20:32;97438.5;;;7.29;84.38
23361;BME280;11852;50.082;18.554;2023-04-15T04:21:39;97441.0;;;7.32;84.29
23361;BME280;11852;50.082;18.554;2023-04-15T04:22:46;97441.0;;;7.31;84.19
23361;BME280;11852;50.082;18.554;2023-04-15T04:23:53;97439.0;;;7.28;84.21
23361;BME280;11852;50.082;18.554;2023-04-15T04:25:00;97442.5;;;7.31;84.28
23361;BME280;11852;50.082;18.554;2023-04-15T04:26:09;97441.5;;;7.33;84.25
23361;BME280;11852;50.082;18.554;2023-04-15T04:27:16;97441.5;;;7.24;84.19
23361;BME280;11852;50.082;18.554;2023-04-15T04:28:23;97445.5;;;7.27;84.34
23361;BME280;11852;50.082;18.554;2023-04-15T04:29:30;97446.5;;;7.31;84.38
23361;BME280;11852;50.082;18.554;2023-04-15T04:30:37;97449.0;;;7.32;84.5
23361;BME280;11852;50.082;18.554;2023-04-15T04:31:44;97449.5;;;7.34;84.4
23361;BME280;11852;50.082;18.554;2023-04-15T04:32:51;97448.5;;;7.35;84.29
23361;BME280;11852;50.082;18.554;2023-04-15T04:33:59;97453.5;;;7.38;84.28
23361;BME280;11852;50.082;18.554;2023-04-15T04:35:06;97452.5;;;7.4;84.34
23361;BME280;11852;50.082;18.554;2023-04-15T04:36:15;97457.0;;;7.45;84.29
23361;BME280;11852;50.082;18.554;2023-04-15T04:37:22;97460.0;;;7.49;84.26
23361;BME280;11852;50.082;18.554;2023-04-15T04:38:30;97462.0;;;7.49;84.26
23361;BME280;11852;50.082;18.554;2023-04-15T04:39:37;97460.0;;;7.48;84.24
23361;BME280;11852;50.082;18.554;2023-04-15T04:40:44;97460.5;;;7.51;84.27
23361;BME280;11852;50.082;18.554;2023-04-15T04:41:53;97462.5;;;7.51;84.29
23361;BME280;11852;50.082;18.554;2023-04-15T04:43:00;97462.5;;;7.53;84.26
23361;BME280;11852;50.082;18.554;2023-04-15T04:44:07;97464.0;;;7.52;84.21
23361;BME280;11852;50.082;18.554;2023-04-15T04:45:14;97465.0;;;7.52;84.18
23361;BME280;11852;50.082;18.554;2023-04-15T04:46:21;97465.0;;;7.52;84.21
23361;BME280;11852;50.082;18.554;2023-04-15T04:47:28;97467.0;;;7.52;84.17
23361;BME280;11852;50.082;18.554;2023-04-15T04:48:35;97467.51;;;7.52;84.29
23361;BME280;11852;50.082;18.554;2023-04-15T04:49:47;97469.99;;;7.53;84.35
23361;BME280;11852;50.082;18.554;2023-04-15T04:50:55;97472.0;;;7.55;84.41
23361;BME280;11852;50.082;18.554;2023-04-15T04:52:03;97474.0;;;7.57;84.31
23361;BME280;11852;50.082;18.554;2023-04-15T04:53:10;97475.0;;;7.58;84.45
23361;BME280;11852;50.082;18.554;2023-04-15T04:54:17;97477.5;;;7.6;84.44
23361;BME280;11852;50.082;18.554;2023-04-15T04:55:25;97477.5;;;7.61;84.4
23361;BME280;11852;50.082;18.554;2023-04-15T04:56:35;97474.5;;;7.65;84.4
23361;BME280;11852;50.082;18.554;2023-04-15T04:57:42;97474.5;;;7.68;84.37
23361;BME280;11852;50.082;18.554;2023-04-15T04:58:49;97473.0;;;7.69;84.36
23361;BME280;11852;50.082;18.554;2023-04-15T04:59:56;97474.5;;;7.7;84.22
23361;BME280;11852;50.082;18.554;2023-04-15T05:01:10;97472.5;;;7.46;84.72
23361;BME280;11852;50.082;18.554;2023-04-15T05:02:17;97475.0;;;7.41;84.85
23361;BME280;11852;50.082;18.554;2023-04-15T05:03:25;97471.5;;;7.36;85.03
23361;BME280;11852;50.082;18.554;2023-04-15T05:04:32;97474.0;;;7.39;85.05
23361;BME280;11852;50.082;18.554;2023-04-15T05:05:39;97473.0;;;7.6;84.67
23361;BME280;11852;50.082;18.554;2023-04-15T05:06:47;97475.0;;;7.69;84.58
23361;BME280;11852;50.082;18.554;2023-04-15T05:07:58;97477.5;;;7.76;84.47
23361;BME280;11852;50.082;18.554;2023-04-15T05:09:05;97475.0;;;7.81;84.37
23361;BME280;11852;50.082;18.554;2023-04-15T05:10:12;97475.0;;;7.82;84.26
23361;BME280;11852;50.082;18.554;2023-04-15T05:11:20;97475.5;;;7.86;84.22
23361;BME280;11852;50.082;18.554;2023-04-15T05:12:27;97475.0;;;7.89;84.24
23361;BME280;11852;50.082;18.554;2023-04-15T05:13:33;97473.5;;;7.93;84.17
23361;BME280;11852;50.082;18.554;2023-04-15T05:14:43;97478.5;;;7.94;84.13
23361;BME280;11852;50.082;18.554;2023-04-15T05:15:50;97477.5;;;8.0;84.01
23361;BME280;11852;50.082;18.554;2023-04-15T05:16:57;97478.5;;;8.01;84.06
23361;BME280;11852;50.082;18.554;2023-04-15T05:18:04;97473.5;;;7.98;84.01
23361;BME280;11852;50.082;18.554;2023-04-15T05:19:15;97476.5;;;7.97;84.01
23361;BME280;11852;50.082;18.554;2023-04-15T05:20:22;97472.5;;;8.02;84.04
23361;BME280;11852;50.082;18.554;2023-04-15T05:21:30;97472.5;;;8.03;84.1
23361;BME280;11852;50.082;18.554;2023-04-15T05:22:37;97473.0;;;8.03;84.15
23361;BME280;11852;50.082;18.554;2023-04-15T05:23:44;97470.49;;;8.06;84.18
23361;BME280;11852;50.082;18.554;2023-04-15T05:24:51;97472.5;;;8.07;84.21
23361;BME280;11852;50.082;18.554;2023-04-15T05:25:59;97474.0;;;8.08;84.24
23361;BME280;11852;50.082;18.554;2023-04-15T05:27:06;97478.5;;;8.1;84.23
23361;BME280;11852;50.082;18.554;2023-04-15T05:28:13;97481.0;;;8.14;84.18
23361;BME280;11852;50.082;18.554;2023-04-15T05:29:23;97482.5;;;8.15;84.2
23361;BME280;11852;50.082;18.554;2023-04-15T05:30:30;97488.5;;;8.18;84.17
23361;BME280;11852;50.082;18.554;2023-04-15T05:31:40;97487.5;;;8.15;84.12
23361;BME280;11852;50.082;18.554;2023-04-15T05:32:47;97487.0;;;8.14;84.16
23361;BME280;11852;50.082;18.554;2023-04-15T05:33:54;97486.5;;;8.19;84.11
23361;BME280;11852;50.082;18.554;2023-04-15T05:35:01;97488.0;;;8.19;84.26
23361;BME280;11852;50.082;18.554;2023-04-15T05:36:08;97485.5;;;8.2;84.26
23361;BME280;11852;50.082;18.554;2023-04-15T05:37:15;97484.0;;;8.18;84.22
23361;BME280;11852;50.082;18.554;2023-04-15T05:38:22;97484.0;;;8.23;84.17
23361;BME280;11852;50.082;18.554;2023-04-15T05:39:29;97487.5;;;8.27;84.13
23361;BME280;11852;50.082;18.554;2023-04-15T05:40:38;97488.0;;;8.28;84.16
23361;BME280;11852;50.082;18.554;2023-04-15T05:41:45;97488.5;;;8.11;84.62
23361;BME280;11852;50.082;18.554;2023-04-15T05:42:55;97489.0;;;8.0;85.01
23361;BME280;11852;50.082;18.554;2023-04-15T05:44:02;97491.0;;;8.09;84.9
23361;BME280;11852;50.082;18.554;2023-04-15T05:45:13;97491.5;;;8.14;84.85
23361;BME280;11852;50.082;18.554;2023-04-15T05:46:20;97494.0;;;8.31;84.57
23361;BME280;11852;50.082;18.554;2023-04-15T05:47:27;97492.01;;;8.26;84.87
23361;BME280;11852;50.082;18.554;2023-04-15T05:48:34;97492.51;;;8.26;84.85
23361;BME280;11852;50.082;18.554;2023-04-15T05:49:41;97492.5;;;8.34;84.69
23361;BME280;11852;50.082;18.554;2023-04-15T05:50:51;97494.0;;;8.41;84.67
23361;BME280;11852;50.082;18.554;2023-04-15T05:51:59;97493.5;;;8.36;84.78
23361;BME280;11852;50.082;18.554;2023-04-15T05:53:07;97492.0;;;8.48;84.41
23361;BME280;11852;50.082;18.554;2023-04-15T05:54:13;97494.5;;;8.68;84.1
23361;BME280;11852;50.082;18.554;2023-04-15T05:55:20;97495.5;;;8.7;84.08
23361;BME280;11852;50.082;18.554;2023-04-15T05:56:27;97491.0;;;8.59;84.12
23361;BME280;11852;50.082;18.554;2023-04-15T05:57:34;97494.0;;;8.75;83.79
23361;BME280;11852;50.082;18.554;2023-04-15T05:58:41;97494.5;;;8.9;83.53
23361;BME280;11852;50.082;18.554;2023-04-15T05:59:48;97497.5;;;8.84;83.79
23361;BME280;11852;50.082;18.554;2023-04-15T06:00:55;97496.0;;;8.96;83.46
23361;BME280;11852;50.082;18.554;2023-04-15T06:02:03;97496.5;;;9.0;83.31
23361;BME280;11852;50.082;18.554;2023-04-15T06:03:09;97497.0;;;9.0;83.29
23361;BME280;11852;50.082;18.554;2023-04-15T06:04:16;97495.0;;;9.01;83.18
23361;BME280;11852;50.082;18.554;2023-04-15T06:05:23;97496.5;;;9.21;82.68